createdAt,value
2017-08-01T00:00:02.027Z,82.82
2017-08-01T00:05:02.825Z,81.56
2017-08-01T00:10:02.030Z,81.75
2017-08-01T00:15:02.270Z,82.51
2017-08-01T00:20:02.274Z,82.7
2017-08-01T00:25:02.469Z,82.96
2017-08-01T00:30:02.666Z,83.36
2017-08-01T00:35:02.950Z,82.95
2017-08-01T00:40:02.218Z,82.27
2017-08-01T00:45:02.410Z,82.2
2017-08-01T00:50:02.076Z,81.95
2017-08-01T00:55:02.305Z,82.54
2017-08-01T01:00:02.512Z,83.57
2017-08-01T01:05:02.700Z,83.76
2017-08-01T01:10:02.896Z,84.5
2017-08-01T01:15:02.087Z,85.32
2017-08-01T01:20:02.353Z,86.37
2017-08-01T01:25:02.563Z,87.13
2017-08-01T01:30:02.743Z,87.22
2017-08-01T01:35:02.428Z,87.17
2017-08-01T01:40:02.634Z,86.17
2017-08-01T01:45:02.849Z,85.92
2017-08-01T01:50:02.367Z,85.48
2017-08-01T01:55:02.576Z,85.3
2017-08-01T02:00:02.793Z,85
2017-08-01T02:05:02.693Z,86.64
2017-08-01T02:10:02.900Z,86.52
2017-08-01T02:15:02.085Z,86.51
2017-08-01T02:20:02.745Z,86.29
2017-08-01T02:25:02.955Z,85.35
2017-08-01T02:30:02.118Z,85.46
2017-08-01T02:35:02.856Z,85.26
2017-08-01T02:40:02.086Z,84.96
2017-08-01T02:45:02.334Z,85.46
2017-08-01T02:50:02.982Z,85.61
2017-08-01T02:55:02.224Z,85.52
2017-08-01T03:00:02.439Z,84.88
2017-08-01T03:05:02.972Z,85.14
2017-08-01T03:10:02.166Z,85.08
2017-08-01T03:15:02.398Z,85.45
2017-08-01T03:20:02.786Z,86.06
2017-08-01T03:25:02.973Z,85.74
2017-08-01T03:30:02.201Z,86.71
2017-08-01T03:35:02.128Z,86.4
2017-08-01T03:40:02.411Z,85.86
2017-08-01T03:45:02.599Z,86.23
2017-08-01T03:50:02.875Z,86.36
2017-08-01T03:55:02.049Z,86.11
2017-08-01T04:00:02.282Z,86.75
2017-08-01T04:05:02.957Z,87.72
2017-08-01T04:10:02.144Z,88.11
2017-08-01T04:15:02.421Z,88.52
2017-08-01T04:20:02.733Z,88.92
2017-08-01T04:25:03.015Z,89.2
2017-08-01T04:30:02.213Z,90.43
2017-08-01T04:35:02.049Z,91
2017-08-01T04:40:02.308Z,92.13
2017-08-01T04:45:02.534Z,92.04
2017-08-01T04:50:02.568Z,92.89
2017-08-01T04:55:02.827Z,92.12
2017-08-01T05:00:03.029Z,92.09
2017-08-01T05:05:02.314Z,92.89
2017-08-01T05:10:02.527Z,93.4
2017-08-01T05:15:02.750Z,94.15
2017-08-01T05:20:02.190Z,93.31
2017-08-01T05:25:02.389Z,92.95
2017-08-01T05:30:02.575Z,92.32
2017-08-01T05:35:02.810Z,91.62
2017-08-01T05:40:03.009Z,92.01
2017-08-01T05:45:02.201Z,93.47
2017-08-01T05:50:02.058Z,93.83
2017-08-01T05:55:02.320Z,94.38
2017-08-01T06:00:02.486Z,94.57
2017-08-01T06:05:02.100Z,95.77
2017-08-01T06:10:02.304Z,95.49
2017-08-01T06:15:02.512Z,94.66
2017-08-01T06:20:02.408Z,94.21
2017-08-01T06:25:02.631Z,95.21
2017-08-01T06:30:02.874Z,91.7
2017-08-01T06:35:02.170Z,91.06
2017-08-01T06:40:07.406Z,90.77
2017-08-01T06:45:02.589Z,90.67
2017-08-01T06:50:02.408Z,88.62
2017-08-01T06:55:02.580Z,89.11
2017-08-01T07:00:02.793Z,88.46
2017-08-01T07:05:02.105Z,89.37
2017-08-01T07:10:02.421Z,88.36
2017-08-01T07:15:02.768Z,89.56
2017-08-01T07:20:02.048Z,88.5
2017-08-01T07:25:02.226Z,88.33
2017-08-01T07:30:02.421Z,88.81
2017-08-01T07:35:02.199Z,88.12
2017-08-01T07:40:02.396Z,86.39
2017-08-01T07:45:02.595Z,85.08
2017-08-01T07:50:02.760Z,83.54
2017-08-01T07:55:02.951Z,81.7
2017-08-01T08:00:02.155Z,80.93
2017-08-01T08:05:02.426Z,80.91
2017-08-01T08:10:02.621Z,81.43
2017-08-01T08:15:02.808Z,81.89
2017-08-01T08:20:02.443Z,82.4
2017-08-01T08:25:02.642Z,78.77
2017-08-01T08:30:02.871Z,79.84
2017-08-01T08:35:02.407Z,76.36
2017-08-01T08:40:02.633Z,76.23
2017-08-01T08:45:02.872Z,76.45
2017-08-01T08:50:02.190Z,79.44
2017-08-01T08:55:02.382Z,80.87
2017-08-01T09:00:02.584Z,80.48
2017-08-01T09:05:02.221Z,80.06
2017-08-01T09:10:02.500Z,83
2017-08-01T09:15:02.711Z,80.66
2017-08-01T09:20:02.666Z,82.04
2017-08-01T09:25:02.958Z,80.48
2017-08-01T09:30:02.229Z,81.79
2017-08-01T09:35:02.443Z,81.06
2017-08-01T09:40:02.657Z,82
2017-08-01T09:45:02.952Z,83.4
2017-08-01T09:50:02.481Z,83.53
2017-08-01T09:55:02.694Z,83.05
2017-08-01T10:00:02.918Z,83.82
2017-08-01T10:05:02.740Z,85.72
2017-08-01T10:10:02.939Z,84.43
2017-08-01T10:15:02.132Z,83.44
2017-08-01T10:20:02.700Z,84.86
2017-08-01T10:25:02.950Z,85.72
2017-08-01T10:30:02.156Z,85.82
2017-08-01T10:35:02.555Z,86.96
2017-08-01T10:40:02.741Z,88.35
2017-08-01T10:45:02.931Z,87.35
2017-08-01T10:50:02.192Z,89.52
2017-08-01T10:55:02.408Z,90.55
2017-08-01T11:00:02.582Z,86.77
2017-08-01T11:05:02.920Z,87.99
2017-08-01T11:10:02.127Z,91.4
2017-08-01T11:15:02.332Z,91.92
2017-08-01T11:20:02.454Z,88.13
2017-08-01T11:25:02.642Z,87.88
2017-08-01T11:30:02.870Z,89.05
2017-08-01T11:35:02.111Z,89.57
2017-08-01T11:40:02.335Z,88.32
2017-08-01T11:45:02.558Z,87.58
2017-08-01T11:50:02.802Z,85.28
2017-08-01T11:55:03.011Z,83.57
2017-08-01T12:00:02.210Z,78.87
2017-08-01T12:05:02.371Z,78.09
2017-08-01T12:10:02.590Z,78.71
2017-08-01T12:15:02.768Z,79.49
2017-08-01T12:20:02.615Z,76.82
2017-08-01T12:25:02.805Z,77.55
2017-08-01T12:30:03.091Z,76.13
2017-08-01T12:35:02.258Z,76.04
2017-08-01T12:40:02.548Z,76.07
2017-08-01T12:45:02.789Z,75.1
2017-08-01T12:50:02.942Z,75.82
2017-08-01T12:55:02.182Z,75.46
2017-08-01T13:00:02.394Z,75.06
2017-08-01T13:05:02.309Z,76.42
2017-08-01T13:10:02.540Z,76.1
2017-08-01T13:15:02.784Z,76.07
2017-08-01T13:20:02.684Z,77.58
2017-08-01T13:25:02.913Z,76.04
2017-08-01T13:30:02.118Z,77.86
2017-08-01T13:35:02.542Z,77.49
2017-08-01T13:40:02.784Z,78.43
2017-08-01T13:45:03.002Z,79.89
2017-08-01T13:50:02.260Z,81.89
2017-08-01T13:55:02.462Z,83.1
2017-08-01T14:00:02.675Z,81.83
2017-08-01T14:05:02.664Z,84.14
2017-08-01T14:10:02.900Z,80.48
2017-08-01T14:15:02.181Z,81.96
2017-08-01T14:20:02.266Z,79.53
2017-08-01T14:25:02.504Z,80.04
2017-08-01T14:30:02.700Z,81.91
2017-08-01T14:35:02.915Z,80.21
2017-08-01T14:40:02.144Z,80.67
2017-08-01T14:45:02.333Z,81.18
2017-08-01T14:50:02.339Z,81.69
2017-08-01T14:55:02.575Z,78.77
2017-08-01T15:00:02.842Z,78.87
2017-08-01T15:05:02.048Z,77.07
2017-08-01T15:10:02.273Z,78.17
2017-08-01T15:15:02.484Z,76.87
2017-08-01T15:20:03.007Z,77.92
2017-08-01T15:25:02.248Z,78.35
2017-08-01T15:30:02.484Z,77.34
2017-08-01T15:35:02.685Z,79.52
2017-08-01T15:40:02.927Z,78.26
2017-08-01T15:45:02.089Z,78.84
2017-08-01T15:50:02.334Z,79.55
2017-08-01T15:55:02.530Z,78.34
2017-08-01T16:00:02.691Z,78.47
2017-08-01T16:05:02.089Z,78.98
2017-08-01T16:10:02.355Z,78.92
2017-08-01T16:15:02.537Z,78.48
2017-08-01T16:20:02.047Z,79.32
2017-08-01T16:25:02.294Z,79.1
2017-08-01T16:30:02.472Z,78.52
2017-08-01T16:35:02.700Z,78.51
2017-08-01T16:40:02.934Z,79.19
2017-08-01T16:45:02.071Z,80.12
2017-08-01T16:50:02.432Z,83.55
2017-08-01T16:55:02.698Z,84.59
2017-08-01T17:00:02.972Z,85.05
2017-08-01T17:05:03.014Z,86.96
2017-08-01T17:10:02.209Z,87.11
2017-08-01T17:15:02.475Z,87.84
2017-08-01T17:20:02.686Z,88.99
2017-08-01T17:25:02.888Z,88.98
2017-08-01T17:30:02.097Z,89.01
2017-08-01T17:35:02.237Z,88.82
2017-08-01T17:40:02.489Z,88.78
2017-08-01T17:45:02.688Z,88.49
2017-08-01T17:50:02.203Z,87.98
2017-08-01T17:55:02.401Z,88.16
2017-08-01T18:00:02.625Z,88.1
2017-08-01T18:05:02.702Z,88.43
2017-08-01T18:10:02.918Z,88.49
2017-08-01T18:15:02.185Z,87.53
2017-08-01T18:20:02.744Z,87.53
2017-08-01T18:25:02.959Z,87.31
2017-08-01T18:30:02.137Z,87.66
2017-08-01T18:35:02.919Z,87.72
2017-08-01T18:40:02.124Z,88.95
2017-08-01T18:45:02.350Z,88.7
2017-08-01T18:50:02.832Z,89.2
2017-08-01T18:55:02.028Z,89.13
2017-08-01T19:00:02.277Z,87.77
2017-08-01T19:05:02.251Z,87.37
2017-08-01T19:10:02.514Z,87.8
2017-08-01T19:15:02.716Z,87.83
2017-08-01T19:20:02.285Z,87.24
2017-08-01T19:25:02.568Z,86.41
2017-08-01T19:30:02.792Z,86.36
2017-08-01T19:35:02.124Z,85.96
2017-08-01T19:40:02.356Z,85.46
2017-08-01T19:45:02.523Z,85.35
2017-08-01T19:50:02.946Z,85.47
2017-08-01T19:55:02.193Z,86.08
2017-08-01T20:00:02.344Z,85.63
2017-08-01T20:05:02.155Z,85.82
2017-08-01T20:10:02.397Z,87.07
2017-08-01T20:15:02.667Z,86.74
2017-08-01T20:20:02.725Z,86.97
2017-08-01T20:25:02.911Z,88.35
2017-08-01T20:30:02.119Z,88.75
2017-08-01T20:35:02.481Z,88.49
2017-08-01T20:40:02.816Z,88.14
2017-08-01T20:45:03.005Z,88.23
2017-08-01T20:50:02.649Z,88.01
2017-08-01T20:55:02.894Z,88.36
2017-08-01T21:00:02.078Z,88.68
2017-08-01T21:05:02.670Z,88.9
2017-08-01T21:10:02.907Z,89.25
2017-08-01T21:15:02.095Z,89.63
2017-08-01T21:20:02.490Z,89.27
2017-08-01T21:25:02.697Z,89.3
2017-08-01T21:30:02.880Z,89.39
2017-08-01T21:35:02.891Z,89.58
2017-08-01T21:40:02.103Z,89.36
2017-08-01T21:45:02.305Z,89.33
2017-08-01T21:50:02.379Z,89.25
2017-08-01T21:55:02.579Z,89.62
2017-08-01T22:00:02.940Z,90.66
2017-08-01T22:05:02.169Z,90.65
2017-08-01T22:10:02.346Z,90.75
2017-08-01T22:15:02.587Z,91.07
2017-08-01T22:20:02.498Z,91.52
2017-08-01T22:25:02.686Z,91.18
2017-08-01T22:30:02.900Z,91.77
2017-08-01T22:35:02.848Z,92.24
2017-08-01T22:40:02.025Z,92.45
2017-08-01T22:45:02.248Z,92.88
2017-08-01T22:50:02.374Z,92.7
2017-08-01T22:55:02.588Z,93.04
2017-08-01T23:00:02.807Z,92.58
2017-08-01T23:05:02.288Z,92.9
2017-08-01T23:10:02.489Z,92.34
2017-08-01T23:15:02.690Z,93.06
2017-08-01T23:20:02.901Z,92.13
2017-08-01T23:25:02.065Z,91.95
2017-08-01T23:30:02.303Z,91.42
2017-08-01T23:35:02.149Z,91.61
2017-08-01T23:40:02.427Z,92.38
2017-08-01T23:45:02.638Z,92.01
2017-08-01T23:50:02.838Z,91.63
2017-08-01T23:55:02.043Z,92.3
